sensor_id;sensor_type;location;lat;lon;timestamp;pressure;altitude;pressure_sealevel;temperature;humidity
63395;BME280;49531;-34.520;150.798;2022-10-28T00:00:07;99335.41;;;20.97;38.29
63395;BME280;49531;-34.520;150.798;2022-10-28T00:02:34;99338.94;;;20.97;37.58
63395;BME280;49531;-34.520;150.798;2022-10-28T00:05:01;99321.25;;;21.00;36.85
63395;BME280;49531;-34.520;150.798;2022-10-28T00:07:28;99320.97;;;21.02;35.71
63395;BME280;49531;-34.520;150.798;2022-10-28T00:09:55;99334.75;;;21.05;36.32
63395;BME280;49531;-34.520;150.798;2022-10-28T00:12:22;99304.88;;;21.05;36.05
63395;BME280;49531;-34.520;150.798;2022-10-28T00:14:50;99314.34;;;21.08;36.06
63395;BME280;49531;-34.520;150.798;2022-10-28T00:17:17;99324.09;;;21.09;36.12
63395;BME280;49531;-34.520;150.798;2022-10-28T00:19:44;99335.16;;;21.12;35.91
63395;BME280;49531;-34.520;150.798;2022-10-28T00:22:12;99316.97;;;21.13;35.93
63395;BME280;49531;-34.520;150.798;2022-10-28T00:24:39;99316.47;;;21.11;35.76
63395;BME280;49531;-34.520;150.798;2022-10-28T00:29:32;99321.59;;;21.12;36.20
63395;BME280;49531;-34.520;150.798;2022-10-28T00:31:59;99312.34;;;21.13;36.16
63395;BME280;49531;-34.520;150.798;2022-10-28T00:34:26;99327.53;;;21.14;36.57
63395;BME280;49531;-34.520;150.798;2022-10-28T00:36:53;99331.56;;;21.17;36.61
63395;BME280;49531;-34.520;150.798;2022-10-28T00:39:23;99317.69;;;21.18;36.87
63395;BME280;49531;-34.520;150.798;2022-10-28T00:41:54;99290.53;;;21.18;36.73
63395;BME280;49531;-34.520;150.798;2022-10-28T00:44:42;99294.84;;;21.19;36.56
63395;BME280;49531;-34.520;150.798;2022-10-28T00:47:26;99298.38;;;21.20;36.47
63395;BME280;49531;-34.520;150.798;2022-10-28T00:49:57;99299.16;;;21.20;36.49
63395;BME280;49531;-34.520;150.798;2022-10-28T00:52:29;99297.56;;;21.19;36.51
63395;BME280;49531;-34.520;150.798;2022-10-28T00:54:59;99305.13;;;21.22;36.23
63395;BME280;49531;-34.520;150.798;2022-10-28T00:57:31;99293.16;;;21.23;36.27
63395;BME280;49531;-34.520;150.798;2022-10-28T01:00:00;99291.56;;;21.22;35.88
63395;BME280;49531;-34.520;150.798;2022-10-28T01:02:28;99307.84;;;21.22;36.02
63395;BME280;49531;-34.520;150.798;2022-10-28T01:04:55;99302.41;;;21.22;36.27
63395;BME280;49531;-34.520;150.798;2022-10-28T01:07:22;99302.41;;;21.22;36.19
63395;BME280;49531;-34.520;150.798;2022-10-28T01:09:50;99267.94;;;21.23;35.79
63395;BME280;49531;-34.520;150.798;2022-10-28T01:15:17;99269.28;;;21.20;36.02
63395;BME280;49531;-34.520;150.798;2022-10-28T01:18:15;99298.91;;;21.22;35.75
63395;BME280;49531;-34.520;150.798;2022-10-28T01:24:11;99289.66;;;21.23;36.12
63395;BME280;49531;-34.520;150.798;2022-10-28T01:27:09;99271.44;;;21.23;35.30
63395;BME280;49531;-34.520;150.798;2022-10-28T01:30:10;99254.34;;;21.23;35.48
63395;BME280;49531;-34.520;150.798;2022-10-28T01:32:54;99255.16;;;21.23;35.35
63395;BME280;49531;-34.520;150.798;2022-10-28T01:35:36;99229.09;;;21.22;35.14
63395;BME280;49531;-34.520;150.798;2022-10-28T01:38:34;99250.22;;;21.25;34.65
63395;BME280;49531;-34.520;150.798;2022-10-28T01:41:10;99216.53;;;21.26;34.71
63395;BME280;49531;-34.520;150.798;2022-10-28T01:43:55;99246.41;;;21.26;35.13
63395;BME280;49531;-34.520;150.798;2022-10-28T01:46:38;99242.88;;;21.26;35.15
63395;BME280;49531;-34.520;150.798;2022-10-28T01:49:14;99223.06;;;21.25;34.93
63395;BME280;49531;-34.520;150.798;2022-10-28T01:51:47;99215.44;;;21.27;34.97
63395;BME280;49531;-34.520;150.798;2022-10-28T01:54:19;99221.97;;;21.26;35.02
63395;BME280;49531;-34.520;150.798;2022-10-28T01:56:49;99211.09;;;21.26;35.43
63395;BME280;49531;-34.520;150.798;2022-10-28T01:59:21;99213.53;;;21.28;35.68
63395;BME280;49531;-34.520;150.798;2022-10-28T02:01:50;99203.47;;;21.28;35.84
63395;BME280;49531;-34.520;150.798;2022-10-28T02:04:18;99222.19;;;21.30;35.90
63395;BME280;49531;-34.520;150.798;2022-10-28T02:06:47;99197.44;;;21.32;36.00
63395;BME280;49531;-34.520;150.798;2022-10-28T02:09:49;99192.00;;;21.32;35.83
63395;BME280;49531;-34.520;150.798;2022-10-28T02:12:21;99201.47;;;21.34;35.50
63395;BME280;49531;-34.520;150.798;2022-10-28T02:15:13;99202.25;;;21.35;35.76
63395;BME280;49531;-34.520;150.798;2022-10-28T02:18:05;99203.25;;;21.39;35.18
63395;BME280;49531;-34.520;150.798;2022-10-28T02:20:52;99211.72;;;21.37;35.54
63395;BME280;49531;-34.520;150.798;2022-10-28T02:23:44;99204.38;;;21.38;35.44
63395;BME280;49531;-34.520;150.798;2022-10-28T02:26:25;99204.06;;;21.39;35.55
63395;BME280;49531;-34.520;150.798;2022-10-28T02:29:19;99203.25;;;21.39;35.25
63395;BME280;49531;-34.520;150.798;2022-10-28T02:31:53;99205.38;;;21.42;35.16
63395;BME280;49531;-34.520;150.798;2022-10-28T02:34:27;99212.72;;;21.41;35.15
63395;BME280;49531;-34.520;150.798;2022-10-28T02:36:57;99192.59;;;21.42;34.74
63395;BME280;49531;-34.520;150.798;2022-10-28T02:39:31;99196.63;;;21.45;34.33
63395;BME280;49531;-34.520;150.798;2022-10-28T02:42:06;99207.19;;;21.46;34.44
63395;BME280;49531;-34.520;150.798;2022-10-28T02:44:39;99180.94;;;21.42;34.38
63395;BME280;49531;-34.520;150.798;2022-10-28T02:47:13;99180.84;;;21.47;34.06
63395;BME280;49531;-34.520;150.798;2022-10-28T02:49:48;99188.97;;;21.47;34.36
63395;BME280;49531;-34.520;150.798;2022-10-28T02:52:18;99174.91;;;21.45;34.36
63395;BME280;49531;-34.520;150.798;2022-10-28T02:54:53;99170.28;;;21.45;34.50
63395;BME280;49531;-34.520;150.798;2022-10-28T02:57:24;99161.81;;;21.47;34.16
63395;BME280;49531;-34.520;150.798;2022-10-28T02:59:54;99167.56;;;21.45;34.59
63395;BME280;49531;-34.520;150.798;2022-10-28T03:02:22;99170.47;;;21.49;34.37
63395;BME280;49531;-34.520;150.798;2022-10-28T03:04:50;99158.00;;;21.48;34.45
63395;BME280;49531;-34.520;150.798;2022-10-28T03:07:17;99166.94;;;21.48;34.65
63395;BME280;49531;-34.520;150.798;2022-10-28T03:09:44;99166.66;;;21.50;34.98
63395;BME280;49531;-34.520;150.798;2022-10-28T03:12:11;99172.88;;;21.50;34.57
63395;BME280;49531;-34.520;150.798;2022-10-28T03:14:38;99146.91;;;21.58;33.54
63395;BME280;49531;-34.520;150.798;2022-10-28T03:17:05;99144.66;;;21.60;33.77
63395;BME280;49531;-34.520;150.798;2022-10-28T03:19:33;99138.63;;;21.63;32.95
63395;BME280;49531;-34.520;150.798;2022-10-28T03:22:00;99142.03;;;21.69;33.22
63395;BME280;49531;-34.520;150.798;2022-10-28T03:24:27;99149.06;;;21.70;33.49
63395;BME280;49531;-34.520;150.798;2022-10-28T03:26:54;99134.88;;;21.73;32.82
63395;BME280;49531;-34.520;150.798;2022-10-28T03:29:21;99132.34;;;21.76;32.79
63395;BME280;49531;-34.520;150.798;2022-10-28T03:31:48;99131.75;;;21.79;33.08
63395;BME280;49531;-34.520;150.798;2022-10-28T03:34:15;99115.13;;;21.81;33.27
63395;BME280;49531;-34.520;150.798;2022-10-28T03:36:42;99126.50;;;21.83;33.35
63395;BME280;49531;-34.520;150.798;2022-10-28T03:39:09;99126.69;;;21.86;33.13
63395;BME280;49531;-34.520;150.798;2022-10-28T03:41:36;99120.63;;;21.89;32.96
63395;BME280;49531;-34.520;150.798;2022-10-28T03:44:04;99135.84;;;21.90;33.02
63395;BME280;49531;-34.520;150.798;2022-10-28T03:46:31;99111.06;;;21.92;32.94
63395;BME280;49531;-34.520;150.798;2022-10-28T03:48:59;99117.81;;;21.94;32.05
63395;BME280;49531;-34.520;150.798;2022-10-28T03:51:26;99103.91;;;21.96;31.51
63395;BME280;49531;-34.520;150.798;2022-10-28T03:53:54;99117.81;;;21.94;32.06
63395;BME280;49531;-34.520;150.798;2022-10-28T03:56:21;99110.44;;;21.95;31.82
63395;BME280;49531;-34.520;150.798;2022-10-28T03:58:48;99105.50;;;21.97;31.60
63395;BME280;49531;-34.520;150.798;2022-10-28T04:01:16;99093.19;;;22.00;31.26
63395;BME280;49531;-34.520;150.798;2022-10-28T04:03:43;99074.16;;;22.00;31.79
63395;BME280;49531;-34.520;150.798;2022-10-28T04:06:10;99092.41;;;21.99;31.70
63395;BME280;49531;-34.520;150.798;2022-10-28T04:08:37;99087.16;;;22.03;31.18
63395;BME280;49531;-34.520;150.798;2022-10-28T04:11:04;99081.72;;;22.03;30.85
63395;BME280;49531;-34.520;150.798;2022-10-28T04:13:32;99076.28;;;22.03;30.70
63395;BME280;49531;-34.520;150.798;2022-10-28T04:15:59;99055.66;;;22.02;30.06
63395;BME280;49531;-34.520;150.798;2022-10-28T04:18:27;99065.72;;;22.01;30.74
63395;BME280;49531;-34.520;150.798;2022-10-28T04:20:54;99064.00;;;22.05;30.95
63395;BME280;49531;-34.520;150.798;2022-10-28T04:23:21;99076.97;;;22.08;31.19
63395;BME280;49531;-34.520;150.798;2022-10-28T04:25:52;99082.09;;;22.10;30.88
63395;BME280;49531;-34.520;150.798;2022-10-28T04:28:20;99074.31;;;22.17;30.60
63395;BME280;49531;-34.520;150.798;2022-10-28T04:30:49;99083.44;;;22.21;30.94
63395;BME280;49531;-34.520;150.798;2022-10-28T04:33:17;99078.69;;;22.26;30.82
63395;BME280;49531;-34.520;150.798;2022-10-28T04:35:44;99095.00;;;22.26;30.97
63395;BME280;49531;-34.520;150.798;2022-10-28T04:38:13;99064.78;;;22.28;30.88
63395;BME280;49531;-34.520;150.798;2022-10-28T04:40:40;99076.13;;;22.30;30.75
63395;BME280;49531;-34.520;150.798;2022-10-28T04:43:07;99074.28;;;22.39;30.33
63395;BME280;49531;-34.520;150.798;2022-10-28T04:45:37;99076.50;;;22.37;31.05
63395;BME280;49531;-34.520;150.798;2022-10-28T04:48:04;99080.03;;;22.38;30.82
63395;BME280;49531;-34.520;150.798;2022-10-28T04:50:32;99077.47;;;22.41;31.11
63395;BME280;49531;-34.520;150.798;2022-10-28T04:53:00;99070.91;;;22.42;31.23
63395;BME280;49531;-34.520;150.798;2022-10-28T04:55:27;99066.25;;;22.43;31.73
63395;BME280;49531;-34.520;150.798;2022-10-28T04:57:58;99063.72;;;22.46;31.75
63395;BME280;49531;-34.520;150.798;2022-10-28T05:00:27;99078.94;;;22.47;32.05
63395;BME280;49531;-34.520;150.798;2022-10-28T05:02:55;99093.50;;;22.51;31.89
63395;BME280;49531;-34.520;150.798;2022-10-28T05:05:22;99091.28;;;22.53;31.77
63395;BME280;49531;-34.520;150.798;2022-10-28T05:07:49;99091.28;;;22.53;32.10
63395;BME280;49531;-34.520;150.798;2022-10-28T05:10:16;99089.06;;;22.55;32.11
63395;BME280;49531;-34.520;150.798;2022-10-28T05:12:44;99090.53;;;22.61;31.95
63395;BME280;49531;-34.520;150.798;2022-10-28T05:15:13;99060.41;;;22.58;32.28
63395;BME280;49531;-34.520;150.798;2022-10-28T05:17:44;99087.13;;;22.56;32.08
63395;BME280;49531;-34.520;150.798;2022-10-28T05:20:12;99090.03;;;22.59;31.89
63395;BME280;49531;-34.520;150.798;2022-10-28T05:22:46;99079.94;;;22.60;31.51
63395;BME280;49531;-34.520;150.798;2022-10-28T05:25:14;99079.16;;;22.59;32.27
63395;BME280;49531;-34.520;150.798;2022-10-28T05:27:41;99077.41;;;22.63;31.49
63395;BME280;49531;-34.520;150.798;2022-10-28T05:30:09;99081.25;;;22.62;31.81
63395;BME280;49531;-34.520;150.798;2022-10-28T05:32:37;99084.78;;;22.63;31.88
63395;BME280;49531;-34.520;150.798;2022-10-28T05:35:04;99077.72;;;22.62;31.80
63395;BME280;49531;-34.520;150.798;2022-10-28T05:37:32;99077.09;;;22.65;31.37
63395;BME280;49531;-34.520;150.798;2022-10-28T05:39:59;99079.81;;;22.65;32.12
63395;BME280;49531;-34.520;150.798;2022-10-28T05:42:26;99092.63;;;22.65;32.15
63395;BME280;49531;-34.520;150.798;2022-10-28T05:44:53;99092.31;;;22.66;32.24
63395;BME280;49531;-34.520;150.798;2022-10-28T05:47:20;99110.72;;;22.69;32.65
63395;BME280;49531;-34.520;150.798;2022-10-28T05:49:47;99092.00;;;22.68;32.42
63395;BME280;49531;-34.520;150.798;2022-10-28T05:52:15;99099.03;;;22.69;32.06
63395;BME280;49531;-34.520;150.798;2022-10-28T05:54:42;99086.56;;;22.68;33.12
63395;BME280;49531;-34.520;150.798;2022-10-28T05:57:09;99094.41;;;22.69;33.13
63395;BME280;49531;-34.520;150.798;2022-10-28T05:59:36;99092.47;;;22.70;33.34
63395;BME280;49531;-34.520;150.798;2022-10-28T06:02:03;99104.97;;;22.71;33.42
63395;BME280;49531;-34.520;150.798;2022-10-28T06:04:30;99096.81;;;22.71;33.65
63395;BME280;49531;-34.520;150.798;2022-10-28T06:06:58;99104.50;;;22.69;32.91
63395;BME280;49531;-34.520;150.798;2022-10-28T06:09:26;99117.78;;;22.70;33.32
63395;BME280;49531;-34.520;150.798;2022-10-28T06:11:54;99115.06;;;22.70;33.68
63395;BME280;49531;-34.520;150.798;2022-10-28T06:14:21;99125.16;;;22.70;33.63
63395;BME280;49531;-34.520;150.798;2022-10-28T06:16:48;99142.59;;;22.69;33.23
63395;BME280;49531;-34.520;150.798;2022-10-28T06:19:15;99140.19;;;22.67;33.20
63395;BME280;49531;-34.520;150.798;2022-10-28T06:21:43;99152.97;;;22.67;33.01
63395;BME280;49531;-34.520;150.798;2022-10-28T06:24:11;99161.78;;;22.63;33.10
63395;BME280;49531;-34.520;150.798;2022-10-28T06:26:38;99168.00;;;22.64;33.10
63395;BME280;49531;-34.520;150.798;2022-10-28T06:29:05;99159.34;;;22.62;32.76
63395;BME280;49531;-34.520;150.798;2022-10-28T06:31:32;99173.28;;;22.60;32.79
63395;BME280;49531;-34.520;150.798;2022-10-28T06:33:59;99176.31;;;22.59;32.51
63395;BME280;49531;-34.520;150.798;2022-10-28T06:36:26;99173.41;;;22.55;32.81
63395;BME280;49531;-34.520;150.798;2022-10-28T06:38:54;99174.53;;;22.54;32.71
63395;BME280;49531;-34.520;150.798;2022-10-28T06:41:21;99176.75;;;22.52;33.12
63395;BME280;49531;-34.520;150.798;2022-10-28T06:43:48;99178.97;;;22.50;33.11
63395;BME280;49531;-34.520;150.798;2022-10-28T06:46:15;99161.03;;;22.49;32.29
63395;BME280;49531;-34.520;150.798;2022-10-28T06:48:42;99177.38;;;22.49;32.36
63395;BME280;49531;-34.520;150.798;2022-10-28T06:51:09;99192.88;;;22.49;32.91
63395;BME280;49531;-34.520;150.798;2022-10-28T06:53:37;99192.38;;;22.47;33.21
63395;BME280;49531;-34.520;150.798;2022-10-28T06:56:05;99206.00;;;22.47;32.57
63395;BME280;49531;-34.520;150.798;2022-10-28T06:58:32;99213.66;;;22.45;33.22
63395;BME280;49531;-34.520;150.798;2022-10-28T07:01:03;99232.22;;;22.43;32.99
63395;BME280;49531;-34.520;150.798;2022-10-28T07:03:30;99233.31;;;22.42;33.47
63395;BME280;49531;-34.520;150.798;2022-10-28T07:05:59;99252.06;;;22.43;34.13
63395;BME280;49531;-34.520;150.798;2022-10-28T07:08:27;99242.78;;;22.44;34.63
63395;BME280;49531;-34.520;150.798;2022-10-28T07:10:56;99248.91;;;22.50;34.62
63395;BME280;49531;-34.520;150.798;2022-10-28T07:13:24;99258.69;;;22.51;34.39
63395;BME280;49531;-34.520;150.798;2022-10-28T07:15:53;99252.94;;;22.52;34.69
63395;BME280;49531;-34.520;150.798;2022-10-28T07:18:22;99256.44;;;22.53;33.40
63395;BME280;49531;-34.520;150.798;2022-10-28T07:20:49;99274.69;;;22.52;33.99
63395;BME280;49531;-34.520;150.798;2022-10-28T07:23:17;99270.88;;;22.53;33.80
63395;BME280;49531;-34.520;150.798;2022-10-28T07:25:53;99264.63;;;22.53;34.01
63395;BME280;49531;-34.520;150.798;2022-10-28T07:28:21;99261.09;;;22.52;33.85
63395;BME280;49531;-34.520;150.798;2022-10-28T07:30:48;99254.53;;;22.53;34.10
63395;BME280;49531;-34.520;150.798;2022-10-28T07:33:16;99262.19;;;22.51;33.56
63395;BME280;49531;-34.520;150.798;2022-10-28T07:35:43;99261.09;;;22.52;33.83
63395;BME280;49531;-34.520;150.798;2022-10-28T07:38:10;99254.03;;;22.51;33.11
63395;BME280;49531;-34.520;150.798;2022-10-28T07:40:37;99255.47;;;22.49;33.09
63395;BME280;49531;-34.520;150.798;2022-10-28T07:43:05;99268.25;;;22.48;33.78
63395;BME280;49531;-34.520;150.798;2022-10-28T07:45:33;99260.41;;;22.47;33.37
63395;BME280;49531;-34.520;150.798;2022-10-28T07:48:01;99266.66;;;22.47;33.54
63395;BME280;49531;-34.520;150.798;2022-10-28T07:50:28;99262.31;;;22.46;33.87
63395;BME280;49531;-34.520;150.798;2022-10-28T07:52:56;99272.09;;;22.47;33.87
63395;BME280;49531;-34.520;150.798;2022-10-28T07:55:24;99255.56;;;22.44;34.19
63395;BME280;49531;-34.520;150.798;2022-10-28T07:57:51;99251.75;;;22.45;33.72
63395;BME280;49531;-34.520;150.798;2022-10-28T08:00:18;99247.72;;;22.42;34.33
63395;BME280;49531;-34.520;150.798;2022-10-28T08:02:45;99261.22;;;22.47;34.29
63395;BME280;49531;-34.520;150.798;2022-10-28T08:05:12;99273.19;;;22.46;34.62
63395;BME280;49531;-34.520;150.798;2022-10-28T08:07:39;99261.03;;;22.44;34.73
63395;BME280;49531;-34.520;150.798;2022-10-28T08:10:06;99272.41;;;22.46;34.43
63395;BME280;49531;-34.520;150.798;2022-10-28T08:12:34;99275.13;;;22.46;34.85
63395;BME280;49531;-34.520;150.798;2022-10-28T08:15:01;99282.16;;;22.47;34.96
63395;BME280;49531;-34.520;150.798;2022-10-28T08:17:28;99286.81;;;22.46;34.95
63395;BME280;49531;-34.520;150.798;2022-10-28T08:19:55;99277.84;;;22.46;34.99
63395;BME280;49531;-34.520;150.798;2022-10-28T08:22:22;99283.28;;;22.46;35.06
63395;BME280;49531;-34.520;150.798;2022-10-28T08:24:50;99289.03;;;22.44;35.26
63395;BME280;49531;-34.520;150.798;2022-10-28T08:27:17;99297.19;;;22.44;35.18
63395;BME280;49531;-34.520;150.798;2022-10-28T08:29:44;99312.72;;;22.44;35.28
63395;BME280;49531;-34.520;150.798;2022-10-28T08:32:11;99312.72;;;22.44;35.53
63395;BME280;49531;-34.520;150.798;2022-10-28T08:34:38;99315.75;;;22.42;35.53
63395;BME280;49531;-34.520;150.798;2022-10-28T08:37:05;99324.72;;;22.43;35.38
63395;BME280;49531;-34.520;150.798;2022-10-28T08:39:32;99323.09;;;22.42;35.64
63395;BME280;49531;-34.520;150.798;2022-10-28T08:42:30;99326.63;;;22.42;35.75
63395;BME280;49531;-34.520;150.798;2022-10-28T08:48:21;99343.09;;;22.37;35.36
63395;BME280;49531;-34.520;150.798;2022-10-28T08:50:58;99353.97;;;22.37;35.57
63395;BME280;49531;-34.520;150.798;2022-10-28T08:53:27;99344.69;;;22.38;35.63
63395;BME280;49531;-34.520;150.798;2022-10-28T08:56:09;99340.97;;;22.34;35.75
63395;BME280;49531;-34.520;150.798;2022-10-28T08:58:42;99349.94;;;22.35;35.87
63395;BME280;49531;-34.520;150.798;2022-10-28T09:01:18;99347.53;;;22.33;36.08
63395;BME280;49531;-34.520;150.798;2022-10-28T09:03:49;99361.13;;;22.33;36.03
63395;BME280;49531;-34.520;150.798;2022-10-28T09:06:16;99358.41;;;22.33;36.06
63395;BME280;49531;-34.520;150.798;2022-10-28T09:08:47;99370.41;;;22.32;35.92
63395;BME280;49531;-34.520;150.798;2022-10-28T09:11:42;99365.25;;;22.31;35.95
63395;BME280;49531;-34.520;150.798;2022-10-28T09:14:40;99358.50;;;22.28;35.89
63395;BME280;49531;-34.520;150.798;2022-10-28T09:17:18;99358.81;;;22.26;36.05
63395;BME280;49531;-34.520;150.798;2022-10-28T09:19:51;99364.25;;;22.26;36.19
63395;BME280;49531;-34.520;150.798;2022-10-28T09:22:41;99364.88;;;22.23;36.07
63395;BME280;49531;-34.520;150.798;2022-10-28T09:28:34;99369.31;;;22.19;35.71
63395;BME280;49531;-34.520;150.798;2022-10-28T09:31:24;99368.50;;;22.19;36.00
63395;BME280;49531;-34.520;150.798;2022-10-28T09:34:06;99381.28;;;22.18;36.19
63395;BME280;49531;-34.520;150.798;2022-10-28T09:36:40;99381.59;;;22.17;36.32
63395;BME280;49531;-34.520;150.798;2022-10-28T09:39:17;99379.97;;;22.16;36.28
63395;BME280;49531;-34.520;150.798;2022-10-28T09:41:45;99388.44;;;22.14;36.40
63395;BME280;49531;-34.520;150.798;2022-10-28T09:44:20;99402.34;;;22.13;36.48
63395;BME280;49531;-34.520;150.798;2022-10-28T09:46:53;99405.06;;;22.13;36.50
63395;BME280;49531;-34.520;150.798;2022-10-28T09:49:24;99406.78;;;22.09;36.64
63395;BME280;49531;-34.520;150.798;2022-10-28T09:52:04;99423.09;;;22.09;36.75
63395;BME280;49531;-34.520;150.798;2022-10-28T09:54:41;99428.00;;;22.07;36.81
63395;BME280;49531;-34.520;150.798;2022-10-28T09:57:10;99422.88;;;22.05;36.85
63395;BME280;49531;-34.520;150.798;2022-10-28T09:59:38;99426.69;;;22.04;36.82
63395;BME280;49531;-34.520;150.798;2022-10-28T10:02:07;99410.69;;;22.03;36.66
63395;BME280;49531;-34.520;150.798;2022-10-28T10:04:45;99415.91;;;21.99;36.11
63395;BME280;49531;-34.520;150.798;2022-10-28T10:07:20;99405.44;;;21.92;36.02
63395;BME280;49531;-34.520;150.798;2022-10-28T10:09:51;99413.00;;;21.95;36.36
63395;BME280;49531;-34.520;150.798;2022-10-28T10:12:18;99429.31;;;21.95;36.17
63395;BME280;49531;-34.520;150.798;2022-10-28T10:14:49;99437.56;;;21.90;36.07
63395;BME280;49531;-34.520;150.798;2022-10-28T10:17:23;99437.06;;;21.88;36.21
63395;BME280;49531;-34.520;150.798;2022-10-28T10:20:08;99450.66;;;21.88;36.40
63395;BME280;49531;-34.520;150.798;2022-10-28T10:22:40;99451.25;;;21.85;36.19
63395;BME280;49531;-34.520;150.798;2022-10-28T10:25:27;99448.31;;;21.82;36.24
63395;BME280;49531;-34.520;150.798;2022-10-28T10:28:01;99445.38;;;21.78;36.21
63395;BME280;49531;-34.520;150.798;2022-10-28T10:30:36;99457.66;;;21.76;36.30
63395;BME280;49531;-34.520;150.798;2022-10-28T10:33:05;99457.66;;;21.76;36.52
63395;BME280;49531;-34.520;150.798;2022-10-28T10:35:39;99437.91;;;21.70;36.42
63395;BME280;49531;-34.520;150.798;2022-10-28T10:38:12;99437.63;;;21.72;36.53
63395;BME280;49531;-34.520;150.798;2022-10-28T10:40:47;99430.06;;;21.69;36.71
63395;BME280;49531;-34.520;150.798;2022-10-28T10:43:22;99398.06;;;21.66;36.47
63395;BME280;49531;-34.520;150.798;2022-10-28T10:46:02;99381.38;;;21.58;36.29
63395;BME280;49531;-34.520;150.798;2022-10-28T10:48:31;99356.72;;;21.55;36.33
63395;BME280;49531;-34.520;150.798;2022-10-28T10:51:07;99336.25;;;21.44;36.44
63395;BME280;49531;-34.520;150.798;2022-10-28T10:53:35;99365.03;;;21.45;36.25
63395;BME280;49531;-34.520;150.798;2022-10-28T10:56:06;99366.72;;;21.41;36.33
63395;BME280;49531;-34.520;150.798;2022-10-28T10:58:36;99368.13;;;21.38;36.45
63395;BME280;49531;-34.520;150.798;2022-10-28T11:01:06;99356.56;;;21.33;36.54
63395;BME280;49531;-34.520;150.798;2022-10-28T11:03:37;99378.28;;;21.33;36.67
63395;BME280;49531;-34.520;150.798;2022-10-28T11:06:07;99378.78;;;21.35;36.61
63395;BME280;49531;-34.520;150.798;2022-10-28T11:08:39;99406.03;;;21.29;36.52
63395;BME280;49531;-34.520;150.798;2022-10-28T11:11:14;99405.22;;;21.29;36.54
63395;BME280;49531;-34.520;150.798;2022-10-28T11:13:45;99398.47;;;21.26;36.74
63395;BME280;49531;-34.520;150.798;2022-10-28T11:16:20;99416.75;;;21.21;36.85
63395;BME280;49531;-34.520;150.798;2022-10-28T11:18:50;99421.16;;;21.17;36.55
63395;BME280;49531;-34.520;150.798;2022-10-28T11:21:33;99421.47;;;21.15;36.70
63395;BME280;49531;-34.520;150.798;2022-10-28T11:24:24;99410.59;;;21.15;37.01
63395;BME280;49531;-34.520;150.798;2022-10-28T11:27:18;99401.94;;;21.13;37.04
63395;BME280;49531;-34.520;150.798;2022-10-28T11:29:50;99400.91;;;21.09;37.17
63395;BME280;49531;-34.520;150.798;2022-10-28T11:32:35;99402.81;;;21.09;37.07
63395;BME280;49531;-34.520;150.798;2022-10-28T11:35:27;99408.03;;;21.05;37.18
63395;BME280;49531;-34.520;150.798;2022-10-28T11:40:56;99423.59;;;21.00;37.33
63395;BME280;49531;-34.520;150.798;2022-10-28T11:43:31;99456.75;;;20.96;37.41
63395;BME280;49531;-34.520;150.798;2022-10-28T11:46:22;99438.06;;;20.95;37.45
63395;BME280;49531;-34.520;150.798;2022-10-28T11:49:10;99449.50;;;20.92;37.62
63395;BME280;49531;-34.520;150.798;2022-10-28T11:52:02;99445.47;;;20.89;37.45
63395;BME280;49531;-34.520;150.798;2022-10-28T11:54:55;99449.06;;;20.85;37.77
63395;BME280;49531;-34.520;150.798;2022-10-28T12:00:37;99433.44;;;20.77;38.09
63395;BME280;49531;-34.520;150.798;2022-10-28T12:06:31;99447.03;;;20.77;37.93
63395;BME280;49531;-34.520;150.798;2022-10-28T12:09:22;99430.22;;;20.75;38.04
63395;BME280;49531;-34.520;150.798;2022-10-28T12:14:55;99458.22;;;20.70;38.23
63395;BME280;49531;-34.520;150.798;2022-10-28T12:17:50;99463.38;;;20.72;38.36
63395;BME280;49531;-34.520;150.798;2022-10-28T12:20:23;99457.13;;;20.71;38.59
63395;BME280;49531;-34.520;150.798;2022-10-28T12:22:55;99451.69;;;20.71;38.46
63395;BME280;49531;-34.520;150.798;2022-10-28T12:25:29;99459.03;;;20.71;38.46
63395;BME280;49531;-34.520;150.798;2022-10-28T12:28:02;99458.81;;;20.67;38.56
63395;BME280;49531;-34.520;150.798;2022-10-28T12:30:34;99451.47;;;20.68;38.73
63395;BME280;49531;-34.520;150.798;2022-10-28T12:33:12;99458.53;;;20.69;38.87
63395;BME280;49531;-34.520;150.798;2022-10-28T12:35:52;99448.53;;;20.64;38.81
63395;BME280;49531;-34.520;150.798;2022-10-28T12:38:44;99464.53;;;20.66;38.87
63395;BME280;49531;-34.520;150.798;2022-10-28T12:41:20;99472.66;;;20.66;38.86
63395;BME280;49531;-34.520;150.798;2022-10-28T12:43:55;99458.59;;;20.63;38.64
63395;BME280;49531;-34.520;150.798;2022-10-28T12:46:40;99461.88;;;20.60;39.00
63395;BME280;49531;-34.520;150.798;2022-10-28T12:49:34;99463.50;;;20.61;38.97
63395;BME280;49531;-34.520;150.798;2022-10-28T12:52:15;99465.16;;;20.57;39.02
63395;BME280;49531;-34.520;150.798;2022-10-28T12:55:16;99457.56;;;20.59;38.97
63395;BME280;49531;-34.520;150.798;2022-10-28T12:57:51;99444.28;;;20.58;38.99
63395;BME280;49531;-34.520;150.798;2022-10-28T13:00:28;99441.34;;;20.54;39.00
63395;BME280;49531;-34.520;150.798;2022-10-28T13:03:03;99431.59;;;20.53;39.08
63395;BME280;49531;-34.520;150.798;2022-10-28T13:05:41;99442.44;;;20.53;39.16
63395;BME280;49531;-34.520;150.798;2022-10-28T13:08:29;99446.53;;;20.51;39.42
63395;BME280;49531;-34.520;150.798;2022-10-28T13:11:33;99444.63;;;20.51;39.43
63395;BME280;49531;-34.520;150.798;2022-10-28T13:14:29;99439.78;;;20.48;39.44
63395;BME280;49531;-34.520;150.798;2022-10-28T13:17:17;99445.22;;;20.48;39.63
63395;BME280;49531;-34.520;150.798;2022-10-28T13:20:13;99424.91;;;20.46;39.67
63395;BME280;49531;-34.520;150.798;2022-10-28T13:22:50;99437.13;;;20.43;39.61
63395;BME280;49531;-34.520;150.798;2022-10-28T13:28:17;99419.06;;;20.39;39.58